sensor_id;sensor_type;location;lat;lon;timestamp;P1;durP1;ratioP1;P2;durP2;ratioP2
15693;SDS011;7947;48.834;9.132;2023-04-06T00:00:33;9.07;;;5.27;;
15693;SDS011;7947;48.834;9.132;2023-04-06T00:03:36;7.90;;;5.73;;
15693;SDS011;7947;48.834;9.132;2023-04-06T00:06:39;9.23;;;6.00;;
15693;SDS011;7947;48.834;9.132;2023-04-06T00:09:42;9.30;;;5.60;;
15693;SDS011;7947;48.834;9.132;2023-04-06T00:12:46;6.70;;;5.10;;
15693;SDS011;7947;48.834;9.132;2023-04-06T00:15:50;7.33;;;5.57;;
15693;SDS011;7947;48.834;9.132;2023-04-06T00:18:52;6.80;;;5.07;;
15693;SDS011;7947;48.834;9.132;2023-04-06T00:21:55;9.97;;;6.07;;
15693;SDS011;7947;48.834;9.132;2023-04-06T00:24:58;8.43;;;5.40;;
15693;SDS011;7947;48.834;9.132;2023-04-06T00:28:01;7.60;;;5.30;;
15693;SDS011;7947;48.834;9.132;2023-04-06T00:31:06;8.87;;;4.67;;
15693;SDS011;7947;48.834;9.132;2023-04-06T00:34:09;8.77;;;5.40;;
15693;SDS011;7947;48.834;9.132;2023-04-06T00:37:12;8.23;;;5.07;;
15693;SDS011;7947;48.834;9.132;2023-04-06T00:40:14;8.30;;;5.30;;
15693;SDS011;7947;48.834;9.132;2023-04-06T00:43:18;6.20;;;5.17;;
15693;SDS011;7947;48.834;9.132;2023-04-06T00:46:22;6.67;;;4.57;;
15693;SDS011;7947;48.834;9.132;2023-04-06T00:49:25;8.20;;;4.20;;
15693;SDS011;7947;48.834;9.132;2023-04-06T00:52:28;9.47;;;5.67;;
15693;SDS011;7947;48.834;9.132;2023-04-06T00:55:31;7.87;;;5.13;;
15693;SDS011;7947;48.834;9.132;2023-04-06T00:58:34;7.43;;;4.73;;
15693;SDS011;7947;48.834;9.132;2023-04-06T01:01:40;10.30;;;4.93;;
15693;SDS011;7947;48.834;9.132;2023-04-06T01:04:43;9.63;;;4.80;;
15693;SDS011;7947;48.834;9.132;2023-04-06T01:07:46;8.80;;;5.07;;
15693;SDS011;7947;48.834;9.132;2023-04-06T01:10:49;7.77;;;4.70;;
15693;SDS011;7947;48.834;9.132;2023-04-06T01:13:51;7.53;;;4.93;;
15693;SDS011;7947;48.834;9.132;2023-04-06T01:16:57;8.23;;;5.03;;
15693;SDS011;7947;48.834;9.132;2023-04-06T01:20:00;7.70;;;4.30;;
15693;SDS011;7947;48.834;9.132;2023-04-06T01:23:04;7.10;;;4.60;;
15693;SDS011;7947;48.834;9.132;2023-04-06T01:26:07;7.80;;;4.90;;
15693;SDS011;7947;48.834;9.132;2023-04-06T01:29:10;8.47;;;4.90;;
15693;SDS011;7947;48.834;9.132;2023-04-06T01:32:12;9.63;;;5.43;;
15693;SDS011;7947;48.834;9.132;2023-04-06T01:35:16;7.20;;;5.07;;
15693;SDS011;7947;48.834;9.132;2023-04-06T01:38:21;11.30;;;5.30;;
15693;SDS011;7947;48.834;9.132;2023-04-06T01:41:24;8.67;;;5.03;;
15693;SDS011;7947;48.834;9.132;2023-04-06T01:44:27;8.90;;;5.27;;
15693;SDS011;7947;48.834;9.132;2023-04-06T01:47:31;7.20;;;5.10;;
15693;SDS011;7947;48.834;9.132;2023-04-06T01:50:34;9.63;;;5.03;;
15693;SDS011;7947;48.834;9.132;2023-04-06T01:53:38;5.50;;;3.90;;
15693;SDS011;7947;48.834;9.132;2023-04-06T01:56:41;6.60;;;4.77;;
15693;SDS011;7947;48.834;9.132;2023-04-06T01:59:44;6.77;;;4.87;;
15693;SDS011;7947;48.834;9.132;2023-04-06T02:02:47;7.53;;;4.90;;
15693;SDS011;7947;48.834;9.132;2023-04-06T02:05:50;6.43;;;4.43;;
15693;SDS011;7947;48.834;9.132;2023-04-06T02:08:54;6.43;;;4.67;;
15693;SDS011;7947;48.834;9.132;2023-04-06T02:11:57;8.83;;;4.73;;
15693;SDS011;7947;48.834;9.132;2023-04-06T02:14:59;7.77;;;4.67;;
15693;SDS011;7947;48.834;9.132;2023-04-06T02:18:02;7.27;;;4.93;;
15693;SDS011;7947;48.834;9.132;2023-04-06T02:21:05;7.83;;;4.87;;
15693;SDS011;7947;48.834;9.132;2023-04-06T02:24:09;6.57;;;5.00;;
15693;SDS011;7947;48.834;9.132;2023-04-06T02:27:13;8.73;;;4.87;;
15693;SDS011;7947;48.834;9.132;2023-04-06T02:30:16;6.63;;;4.63;;
15693;SDS011;7947;48.834;9.132;2023-04-06T02:33:19;8.20;;;5.37;;
15693;SDS011;7947;48.834;9.132;2023-04-06T02:36:21;6.93;;;4.10;;
15693;SDS011;7947;48.834;9.132;2023-04-06T02:39:25;7.20;;;4.97;;
15693;SDS011;7947;48.834;9.132;2023-04-06T02:42:28;6.37;;;4.60;;
15693;SDS011;7947;48.834;9.132;2023-04-06T02:45:31;7.20;;;4.30;;
15693;SDS011;7947;48.834;9.132;2023-04-06T02:48:34;12.33;;;5.40;;
15693;SDS011;7947;48.834;9.132;2023-04-06T02:51:38;6.90;;;4.67;;
15693;SDS011;7947;48.834;9.132;2023-04-06T02:54:42;8.47;;;5.13;;
15693;SDS011;7947;48.834;9.132;2023-04-06T02:57:45;8.43;;;5.20;;
15693;SDS011;7947;48.834;9.132;2023-04-06T03:00:48;7.30;;;5.03;;
15693;SDS011;7947;48.834;9.132;2023-04-06T03:03:51;10.27;;;5.30;;
15693;SDS011;7947;48.834;9.132;2023-04-06T03:06:54;8.80;;;5.17;;
15693;SDS011;7947;48.834;9.132;2023-04-06T03:10:01;8.17;;;5.07;;
15693;SDS011;7947;48.834;9.132;2023-04-06T03:13:03;8.07;;;5.63;;
15693;SDS011;7947;48.834;9.132;2023-04-06T03:16:06;7.53;;;4.87;;
15693;SDS011;7947;48.834;9.132;2023-04-06T03:19:09;8.50;;;5.17;;
15693;SDS011;7947;48.834;9.132;2023-04-06T03:22:12;7.03;;;4.80;;
15693;SDS011;7947;48.834;9.132;2023-04-06T03:25:16;5.40;;;4.33;;
15693;SDS011;7947;48.834;9.132;2023-04-06T03:28:19;6.47;;;4.77;;
15693;SDS011;7947;48.834;9.132;2023-04-06T03:31:22;7.50;;;4.93;;
15693;SDS011;7947;48.834;9.132;2023-04-06T03:34:24;7.50;;;5.30;;
15693;SDS011;7947;48.834;9.132;2023-04-06T03:37:27;10.37;;;5.47;;
15693;SDS011;7947;48.834;9.132;2023-04-06T03:40:31;9.80;;;4.97;;
15693;SDS011;7947;48.834;9.132;2023-04-06T03:43:34;7.80;;;4.90;;
15693;SDS011;7947;48.834;9.132;2023-04-06T03:46:37;9.27;;;5.50;;
15693;SDS011;7947;48.834;9.132;2023-04-06T03:49:40;7.93;;;5.00;;
15693;SDS011;7947;48.834;9.132;2023-04-06T03:52:43;7.23;;;5.03;;
15693;SDS011;7947;48.834;9.132;2023-04-06T03:55:47;7.83;;;4.83;;
15693;SDS011;7947;48.834;9.132;2023-04-06T03:58:50;6.90;;;5.53;;
15693;SDS011;7947;48.834;9.132;2023-04-06T04:01:53;6.93;;;4.63;;
15693;SDS011;7947;48.834;9.132;2023-04-06T04:04:56;9.27;;;5.10;;
15693;SDS011;7947;48.834;9.132;2023-04-06T04:07:58;10.73;;;5.03;;
15693;SDS011;7947;48.834;9.132;2023-04-06T04:11:02;7.60;;;4.70;;
15693;SDS011;7947;48.834;9.132;2023-04-06T04:14:05;7.20;;;4.70;;
15693;SDS011;7947;48.834;9.132;2023-04-06T04:17:08;7.27;;;5.13;;
15693;SDS011;7947;48.834;9.132;2023-04-06T04:20:11;8.20;;;5.03;;
15693;SDS011;7947;48.834;9.132;2023-04-06T04:23:14;6.57;;;4.47;;
15693;SDS011;7947;48.834;9.132;2023-04-06T04:26:18;6.77;;;4.97;;
15693;SDS011;7947;48.834;9.132;2023-04-06T04:29:21;7.03;;;5.03;;
15693;SDS011;7947;48.834;9.132;2023-04-06T04:32:23;6.40;;;4.40;;
15693;SDS011;7947;48.834;9.132;2023-04-06T04:35:28;5.73;;;3.90;;
15693;SDS011;7947;48.834;9.132;2023-04-06T04:38:31;8.40;;;4.70;;
15693;SDS011;7947;48.834;9.132;2023-04-06T04:41:35;7.67;;;4.73;;
15693;SDS011;7947;48.834;9.132;2023-04-06T04:44:38;8.67;;;5.07;;
15693;SDS011;7947;48.834;9.132;2023-04-06T04:47:41;6.97;;;5.07;;
15693;SDS011;7947;48.834;9.132;2023-04-06T04:50:44;10.27;;;5.50;;
15693;SDS011;7947;48.834;9.132;2023-04-06T04:53:46;7.00;;;4.97;;
15693;SDS011;7947;48.834;9.132;2023-04-06T04:56:51;8.00;;;5.00;;
15693;SDS011;7947;48.834;9.132;2023-04-06T04:59:53;9.40;;;4.90;;
15693;SDS011;7947;48.834;9.132;2023-04-06T05:02:58;7.30;;;4.67;;
15693;SDS011;7947;48.834;9.132;2023-04-06T05:06:01;8.33;;;5.13;;
15693;SDS011;7947;48.834;9.132;2023-04-06T05:09:04;8.27;;;5.10;;
15693;SDS011;7947;48.834;9.132;2023-04-06T05:12:08;8.17;;;4.80;;
15693;SDS011;7947;48.834;9.132;2023-04-06T05:15:11;8.27;;;5.33;;
15693;SDS011;7947;48.834;9.132;2023-04-06T05:18:14;9.43;;;4.63;;
15693;SDS011;7947;48.834;9.132;2023-04-06T05:21:17;10.63;;;5.57;;
15693;SDS011;7947;48.834;9.132;2023-04-06T05:24:21;7.67;;;5.60;;
15693;SDS011;7947;48.834;9.132;2023-04-06T05:27:25;7.87;;;5.50;;
15693;SDS011;7947;48.834;9.132;2023-04-06T05:30:28;10.13;;;5.83;;
15693;SDS011;7947;48.834;9.132;2023-04-06T05:33:31;8.47;;;5.50;;
15693;SDS011;7947;48.834;9.132;2023-04-06T05:36:34;10.27;;;5.80;;
15693;SDS011;7947;48.834;9.132;2023-04-06T05:39:37;7.73;;;5.40;;
15693;SDS011;7947;48.834;9.132;2023-04-06T05:42:41;7.40;;;5.00;;
15693;SDS011;7947;48.834;9.132;2023-04-06T05:45:45;13.20;;;6.00;;
15693;SDS011;7947;48.834;9.132;2023-04-06T05:48:47;10.47;;;5.93;;
15693;SDS011;7947;48.834;9.132;2023-04-06T05:51:50;8.60;;;4.70;;
15693;SDS011;7947;48.834;9.132;2023-04-06T05:54:53;6.80;;;5.30;;
15693;SDS011;7947;48.834;9.132;2023-04-06T05:57:57;12.33;;;5.43;;
15693;SDS011;7947;48.834;9.132;2023-04-06T06:01:00;8.67;;;5.00;;
15693;SDS011;7947;48.834;9.132;2023-04-06T06:04:04;7.60;;;5.43;;
15693;SDS011;7947;48.834;9.132;2023-04-06T06:07:06;10.37;;;5.87;;
15693;SDS011;7947;48.834;9.132;2023-04-06T06:10:09;9.27;;;6.27;;
15693;SDS011;7947;48.834;9.132;2023-04-06T06:13:14;13.10;;;7.80;;
15693;SDS011;7947;48.834;9.132;2023-04-06T06:16:17;8.50;;;6.70;;
15693;SDS011;7947;48.834;9.132;2023-04-06T06:19:20;13.20;;;6.30;;
15693;SDS011;7947;48.834;9.132;2023-04-06T06:22:23;12.40;;;6.37;;
15693;SDS011;7947;48.834;9.132;2023-04-06T06:25:26;13.43;;;6.87;;
15693;SDS011;7947;48.834;9.132;2023-04-06T06:28:30;10.97;;;6.50;;
15693;SDS011;7947;48.834;9.132;2023-04-06T06:31:32;10.20;;;6.30;;
15693;SDS011;7947;48.834;9.132;2023-04-06T06:34:36;11.13;;;6.90;;
15693;SDS011;7947;48.834;9.132;2023-04-06T06:37:39;11.63;;;6.70;;
15693;SDS011;7947;48.834;9.132;2023-04-06T06:40:42;7.73;;;5.80;;
15693;SDS011;7947;48.834;9.132;2023-04-06T06:43:46;12.23;;;7.13;;
15693;SDS011;7947;48.834;9.132;2023-04-06T06:46:48;9.77;;;6.47;;
15693;SDS011;7947;48.834;9.132;2023-04-06T06:49:51;9.60;;;6.33;;
15693;SDS011;7947;48.834;9.132;2023-04-06T06:52:54;12.13;;;6.53;;
15693;SDS011;7947;48.834;9.132;2023-04-06T06:55:57;10.87;;;6.93;;
15693;SDS011;7947;48.834;9.132;2023-04-06T06:59:01;13.40;;;6.63;;
15693;SDS011;7947;48.834;9.132;2023-04-06T07:02:04;9.77;;;7.57;;
15693;SDS011;7947;48.834;9.132;2023-04-06T07:05:07;8.40;;;6.30;;
15693;SDS011;7947;48.834;9.132;2023-04-06T07:08:24;11.07;;;6.13;;
15693;SDS011;7947;48.834;9.132;2023-04-06T07:11:27;11.13;;;7.07;;
15693;SDS011;7947;48.834;9.132;2023-04-06T07:14:31;12.87;;;6.47;;
15693;SDS011;7947;48.834;9.132;2023-04-06T07:17:34;10.37;;;6.87;;
15693;SDS011;7947;48.834;9.132;2023-04-06T07:20:37;9.57;;;6.97;;
15693;SDS011;7947;48.834;9.132;2023-04-06T07:23:40;8.30;;;6.70;;
15693;SDS011;7947;48.834;9.132;2023-04-06T07:26:42;10.87;;;7.37;;
15693;SDS011;7947;48.834;9.132;2023-04-06T07:29:46;9.40;;;6.63;;
15693;SDS011;7947;48.834;9.132;2023-04-06T07:32:49;11.53;;;7.57;;
15693;SDS011;7947;48.834;9.132;2023-04-06T07:35:52;8.90;;;6.50;;
15693;SDS011;7947;48.834;9.132;2023-04-06T07:38:55;9.20;;;7.03;;
15693;SDS011;7947;48.834;9.132;2023-04-06T07:41:58;8.53;;;6.77;;
15693;SDS011;7947;48.834;9.132;2023-04-06T07:45:03;8.90;;;6.27;;
15693;SDS011;7947;48.834;9.132;2023-04-06T07:48:06;8.53;;;6.33;;
15693;SDS011;7947;48.834;9.132;2023-04-06T07:51:09;9.17;;;6.63;;
15693;SDS011;7947;48.834;9.132;2023-04-06T07:54:15;11.57;;;7.00;;
15693;SDS011;7947;48.834;9.132;2023-04-06T07:57:18;9.20;;;6.70;;
15693;SDS011;7947;48.834;9.132;2023-04-06T08:00:22;10.70;;;6.77;;
15693;SDS011;7947;48.834;9.132;2023-04-06T08:03:25;10.03;;;7.10;;
15693;SDS011;7947;48.834;9.132;2023-04-06T08:06:28;13.43;;;7.87;;
15693;SDS011;7947;48.834;9.132;2023-04-06T08:09:31;10.27;;;7.33;;
15693;SDS011;7947;48.834;9.132;2023-04-06T08:12:34;12.57;;;7.53;;
15693;SDS011;7947;48.834;9.132;2023-04-06T08:15:38;9.87;;;7.40;;
15693;SDS011;7947;48.834;9.132;2023-04-06T08:18:41;13.67;;;6.90;;
15693;SDS011;7947;48.834;9.132;2023-04-06T08:21:44;8.67;;;6.33;;
15693;SDS011;7947;48.834;9.132;2023-04-06T08:24:47;10.87;;;6.63;;
15693;SDS011;7947;48.834;9.132;2023-04-06T08:27:50;8.80;;;5.93;;
15693;SDS011;7947;48.834;9.132;2023-04-06T08:30:54;9.73;;;7.10;;
15693;SDS011;7947;48.834;9.132;2023-04-06T08:33:57;9.93;;;6.63;;
15693;SDS011;7947;48.834;9.132;2023-04-06T08:36:59;14.20;;;5.67;;
15693;SDS011;7947;48.834;9.132;2023-04-06T08:40:02;9.03;;;6.27;;
15693;SDS011;7947;48.834;9.132;2023-04-06T08:43:06;9.43;;;5.97;;
15693;SDS011;7947;48.834;9.132;2023-04-06T08:46:14;8.73;;;6.63;;
15693;SDS011;7947;48.834;9.132;2023-04-06T08:49:17;9.77;;;5.97;;
15693;SDS011;7947;48.834;9.132;2023-04-06T08:52:20;9.37;;;6.43;;
15693;SDS011;7947;48.834;9.132;2023-04-06T08:55:23;7.87;;;5.87;;
15693;SDS011;7947;48.834;9.132;2023-04-06T08:58:28;8.93;;;6.23;;
15693;SDS011;7947;48.834;9.132;2023-04-06T09:01:40;10.53;;;6.93;;
15693;SDS011;7947;48.834;9.132;2023-04-06T09:04:45;9.17;;;5.73;;
15693;SDS011;7947;48.834;9.132;2023-04-06T09:07:50;7.77;;;5.40;;
15693;SDS011;7947;48.834;9.132;2023-04-06T09:10:52;9.00;;;5.05;;
15693;SDS011;7947;48.834;9.132;2023-04-06T09:13:55;6.63;;;5.15;;
15693;SDS011;7947;48.834;9.132;2023-04-06T09:16:59;6.68;;;5.13;;
15693;SDS011;7947;48.834;9.132;2023-04-06T09:20:02;11.23;;;5.85;;
15693;SDS011;7947;48.834;9.132;2023-04-06T09:23:06;8.73;;;5.28;;
15693;SDS011;7947;48.834;9.132;2023-04-06T09:26:19;7.25;;;5.80;;
15693;SDS011;7947;48.834;9.132;2023-04-06T09:29:22;7.50;;;5.65;;
15693;SDS011;7947;48.834;9.132;2023-04-06T09:32:29;7.70;;;5.50;;
15693;SDS011;7947;48.834;9.132;2023-04-06T09:35:32;9.82;;;5.30;;
15693;SDS011;7947;48.834;9.132;2023-04-06T09:38:36;6.15;;;4.65;;
15693;SDS011;7947;48.834;9.132;2023-04-06T09:41:39;7.90;;;5.47;;
15693;SDS011;7947;48.834;9.132;2023-04-06T09:44:42;8.10;;;5.05;;
15693;SDS011;7947;48.834;9.132;2023-04-06T09:47:47;8.18;;;5.55;;
15693;SDS011;7947;48.834;9.132;2023-04-06T09:50:52;7.05;;;5.60;;
15693;SDS011;7947;48.834;9.132;2023-04-06T09:54:01;7.35;;;5.55;;
15693;SDS011;7947;48.834;9.132;2023-04-06T09:57:07;7.85;;;5.38;;
15693;SDS011;7947;48.834;9.132;2023-04-06T10:00:17;10.20;;;6.07;;
15693;SDS011;7947;48.834;9.132;2023-04-06T10:03:28;6.07;;;5.25;;
15693;SDS011;7947;48.834;9.132;2023-04-06T10:06:40;8.75;;;5.60;;
15693;SDS011;7947;48.834;9.132;2023-04-06T10:09:43;7.78;;;5.30;;
15693;SDS011;7947;48.834;9.132;2023-04-06T10:12:48;9.75;;;6.15;;
15693;SDS011;7947;48.834;9.132;2023-04-06T10:15:51;9.95;;;5.82;;
15693;SDS011;7947;48.834;9.132;2023-04-06T10:18:56;8.45;;;6.35;;
15693;SDS011;7947;48.834;9.132;2023-04-06T10:22:04;9.60;;;5.20;;
15693;SDS011;7947;48.834;9.132;2023-04-06T10:25:09;11.95;;;5.57;;
15693;SDS011;7947;48.834;9.132;2023-04-06T10:28:12;7.57;;;5.47;;
15693;SDS011;7947;48.834;9.132;2023-04-06T10:31:23;8.30;;;5.65;;
15693;SDS011;7947;48.834;9.132;2023-04-06T10:34:35;9.30;;;5.70;;
15693;SDS011;7947;48.834;9.132;2023-04-06T10:37:49;8.02;;;6.10;;
15693;SDS011;7947;48.834;9.132;2023-04-06T10:40:53;7.05;;;5.45;;
15693;SDS011;7947;48.834;9.132;2023-04-06T10:44:06;7.13;;;5.07;;
15693;SDS011;7947;48.834;9.132;2023-04-06T10:47:15;7.28;;;5.30;;
15693;SDS011;7947;48.834;9.132;2023-04-06T10:50:20;8.48;;;5.45;;
15693;SDS011;7947;48.834;9.132;2023-04-06T10:53:25;7.45;;;5.03;;
15693;SDS011;7947;48.834;9.132;2023-04-06T10:56:29;6.47;;;4.95;;
15693;SDS011;7947;48.834;9.132;2023-04-06T10:59:33;8.07;;;5.30;;
15693;SDS011;7947;48.834;9.132;2023-04-06T11:02:36;9.10;;;5.65;;
15693;SDS011;7947;48.834;9.132;2023-04-06T11:05:44;7.55;;;5.45;;
15693;SDS011;7947;48.834;9.132;2023-04-06T11:08:48;8.60;;;5.75;;
15693;SDS011;7947;48.834;9.132;2023-04-06T11:11:51;7.55;;;5.90;;
15693;SDS011;7947;48.834;9.132;2023-04-06T11:14:55;9.05;;;6.07;;
15693;SDS011;7947;48.834;9.132;2023-04-06T11:18:03;10.13;;;5.88;;
15693;SDS011;7947;48.834;9.132;2023-04-06T11:21:07;7.28;;;5.80;;
15693;SDS011;7947;48.834;9.132;2023-04-06T11:24:11;7.32;;;5.10;;
15693;SDS011;7947;48.834;9.132;2023-04-06T11:27:16;8.15;;;5.13;;
15693;SDS011;7947;48.834;9.132;2023-04-06T11:30:19;7.82;;;4.75;;
15693;SDS011;7947;48.834;9.132;2023-04-06T11:33:22;9.07;;;5.18;;
15693;SDS011;7947;48.834;9.132;2023-04-06T11:36:28;7.55;;;5.15;;
15693;SDS011;7947;48.834;9.132;2023-04-06T11:39:32;8.02;;;4.70;;
15693;SDS011;7947;48.834;9.132;2023-04-06T11:42:42;6.05;;;5.07;;
15693;SDS011;7947;48.834;9.132;2023-04-06T11:46:01;6.88;;;4.65;;
15693;SDS011;7947;48.834;9.132;2023-04-06T11:49:04;7.13;;;4.95;;
15693;SDS011;7947;48.834;9.132;2023-04-06T11:52:15;6.88;;;5.03;;
15693;SDS011;7947;48.834;9.132;2023-04-06T11:55:19;7.47;;;4.53;;
15693;SDS011;7947;48.834;9.132;2023-04-06T11:58:22;7.85;;;4.80;;
15693;SDS011;7947;48.834;9.132;2023-04-06T12:01:25;6.40;;;4.90;;
15693;SDS011;7947;48.834;9.132;2023-04-06T12:04:28;9.40;;;4.55;;
15693;SDS011;7947;48.834;9.132;2023-04-06T12:07:33;7.15;;;4.88;;
15693;SDS011;7947;48.834;9.132;2023-04-06T12:10:36;6.93;;;4.38;;
15693;SDS011;7947;48.834;9.132;2023-04-06T12:13:39;9.43;;;4.97;;
15693;SDS011;7947;48.834;9.132;2023-04-06T12:16:42;6.22;;;4.35;;
15693;SDS011;7947;48.834;9.132;2023-04-06T12:19:45;5.65;;;4.32;;
15693;SDS011;7947;48.834;9.132;2023-04-06T12:22:49;8.07;;;4.90;;
15693;SDS011;7947;48.834;9.132;2023-04-06T12:25:52;6.32;;;4.63;;
15693;SDS011;7947;48.834;9.132;2023-04-06T12:28:56;7.45;;;5.25;;
15693;SDS011;7947;48.834;9.132;2023-04-06T12:32:00;8.25;;;5.00;;
15693;SDS011;7947;48.834;9.132;2023-04-06T12:35:03;5.78;;;4.22;;
15693;SDS011;7947;48.834;9.132;2023-04-06T12:38:08;6.78;;;4.47;;
15693;SDS011;7947;48.834;9.132;2023-04-06T12:41:11;5.63;;;4.13;;
15693;SDS011;7947;48.834;9.132;2023-04-06T12:44:14;7.07;;;5.03;;
15693;SDS011;7947;48.834;9.132;2023-04-06T12:47:17;7.00;;;5.03;;
15693;SDS011;7947;48.834;9.132;2023-04-06T12:50:20;6.03;;;4.43;;
15693;SDS011;7947;48.834;9.132;2023-04-06T12:53:24;5.63;;;4.25;;
15693;SDS011;7947;48.834;9.132;2023-04-06T12:56:27;5.07;;;4.15;;
15693;SDS011;7947;48.834;9.132;2023-04-06T12:59:31;5.15;;;3.72;;
15693;SDS011;7947;48.834;9.132;2023-04-06T13:02:36;5.63;;;3.83;;
15693;SDS011;7947;48.834;9.132;2023-04-06T13:05:43;5.55;;;3.92;;
15693;SDS011;7947;48.834;9.132;2023-04-06T13:08:47;7.15;;;3.83;;
15693;SDS011;7947;48.834;9.132;2023-04-06T13:11:51;6.75;;;4.28;;
15693;SDS011;7947;48.834;9.132;2023-04-06T13:14:54;7.38;;;4.18;;
15693;SDS011;7947;48.834;9.132;2023-04-06T13:17:57;6.00;;;4.22;;
15693;SDS011;7947;48.834;9.132;2023-04-06T13:21:01;4.45;;;3.70;;
15693;SDS011;7947;48.834;9.132;2023-04-06T13:24:05;6.25;;;4.82;;
15693;SDS011;7947;48.834;9.132;2023-04-06T13:27:08;5.70;;;4.22;;
15693;SDS011;7947;48.834;9.132;2023-04-06T13:30:13;5.20;;;3.67;;
15693;SDS011;7947;48.834;9.132;2023-04-06T13:33:18;5.65;;;3.92;;
15693;SDS011;7947;48.834;9.132;2023-04-06T13:36:21;4.95;;;3.90;;
15693;SDS011;7947;48.834;9.132;2023-04-06T13:39:25;6.60;;;4.38;;
15693;SDS011;7947;48.834;9.132;2023-04-06T13:42:28;5.25;;;4.03;;
15693;SDS011;7947;48.834;9.132;2023-04-06T13:45:32;7.03;;;4.40;;
15693;SDS011;7947;48.834;9.132;2023-04-06T13:48:35;5.22;;;3.92;;
15693;SDS011;7947;48.834;9.132;2023-04-06T13:51:38;5.68;;;4.65;;
15693;SDS011;7947;48.834;9.132;2023-04-06T13:54:42;7.65;;;4.68;;
15693;SDS011;7947;48.834;9.132;2023-04-06T13:57:45;6.13;;;4.07;;
15693;SDS011;7947;48.834;9.132;2023-04-06T14:00:47;6.57;;;4.07;;
15693;SDS011;7947;48.834;9.132;2023-04-06T14:03:51;8.07;;;4.65;;
15693;SDS011;7947;48.834;9.132;2023-04-06T14:06:54;7.75;;;4.47;;
15693;SDS011;7947;48.834;9.132;2023-04-06T14:09:58;7.05;;;4.53;;
15693;SDS011;7947;48.834;9.132;2023-04-06T14:13:02;6.93;;;4.20;;
15693;SDS011;7947;48.834;9.132;2023-04-06T14:16:05;6.25;;;4.22;;
15693;SDS011;7947;48.834;9.132;2023-04-06T14:19:08;5.32;;;4.10;;
15693;SDS011;7947;48.834;9.132;2023-04-06T14:22:12;5.85;;;3.95;;
15693;SDS011;7947;48.834;9.132;2023-04-06T14:25:17;5.43;;;3.88;;
15693;SDS011;7947;48.834;9.132;2023-04-06T14:28:20;4.93;;;3.65;;
15693;SDS011;7947;48.834;9.132;2023-04-06T14:31:23;3.95;;;3.33;;
15693;SDS011;7947;48.834;9.132;2023-04-06T14:34:26;7.38;;;3.97;;
15693;SDS011;7947;48.834;9.132;2023-04-06T14:37:29;6.25;;;4.03;;
15693;SDS011;7947;48.834;9.132;2023-04-06T14:40:35;3.53;;;3.20;;
15693;SDS011;7947;48.834;9.132;2023-04-06T14:43:38;5.97;;;4.00;;
15693;SDS011;7947;48.834;9.132;2023-04-06T14:46:41;5.82;;;3.10;;
15693;SDS011;7947;48.834;9.132;2023-04-06T14:49:44;10.77;;;4.65;;
15693;SDS011;7947;48.834;9.132;2023-04-06T14:52:46;5.13;;;3.45;;
15693;SDS011;7947;48.834;9.132;2023-04-06T14:55:51;5.97;;;3.60;;
15693;SDS011;7947;48.834;9.132;2023-04-06T14:58:56;5.72;;;3.85;;
15693;SDS011;7947;48.834;9.132;2023-04-06T15:02:00;4.07;;;3.33;;
15693;SDS011;7947;48.834;9.132;2023-04-06T15:05:04;4.95;;;3.17;;
15693;SDS011;7947;48.834;9.132;2023-04-06T15:08:08;7.15;;;3.70;;
15693;SDS011;7947;48.834;9.132;2023-04-06T15:11:14;4.15;;;3.15;;
15693;SDS011;7947;48.834;9.132;2023-04-06T15:14:16;4.93;;;3.80;;
15693;SDS011;7947;48.834;9.132;2023-04-06T15:17:19;5.10;;;3.33;;
15693;SDS011;7947;48.834;9.132;2023-04-06T15:20:22;6.72;;;4.20;;
15693;SDS011;7947;48.834;9.132;2023-04-06T15:23:25;6.38;;;4.20;;
15693;SDS011;7947;48.834;9.132;2023-04-06T15:26:32;5.75;;;3.72;;
15693;SDS011;7947;48.834;9.132;2023-04-06T15:29:34;6.13;;;4.00;;
15693;SDS011;7947;48.834;9.132;2023-04-06T15:32:37;5.40;;;3.80;;
15693;SDS011;7947;48.834;9.132;2023-04-06T15:35:40;5.63;;;3.58;;
15693;SDS011;7947;48.834;9.132;2023-04-06T15:38:43;4.68;;;3.65;;
15693;SDS011;7947;48.834;9.132;2023-04-06T15:41:48;5.25;;;3.28;;
15693;SDS011;7947;48.834;9.132;2023-04-06T15:44:50;6.60;;;3.97;;
15693;SDS011;7947;48.834;9.132;2023-04-06T15:47:53;4.45;;;3.75;;
15693;SDS011;7947;48.834;9.132;2023-04-06T15:50:56;7.22;;;4.60;;
15693;SDS011;7947;48.834;9.132;2023-04-06T15:53:59;6.18;;;4.43;;
15693;SDS011;7947;48.834;9.132;2023-04-06T15:57:03;6.75;;;4.47;;
15693;SDS011;7947;48.834;9.132;2023-04-06T16:00:06;7.18;;;4.18;;
15693;SDS011;7947;48.834;9.132;2023-04-06T16:03:10;6.88;;;4.63;;
15693;SDS011;7947;48.834;9.132;2023-04-06T16:06:13;6.28;;;4.63;;
15693;SDS011;7947;48.834;9.132;2023-04-06T16:09:16;6.32;;;4.30;;
15693;SDS011;7947;48.834;9.132;2023-04-06T16:12:21;8.73;;;4.47;;
15693;SDS011;7947;48.834;9.132;2023-04-06T16:15:24;7.28;;;4.22;;
15693;SDS011;7947;48.834;9.132;2023-04-06T16:18:27;9.25;;;4.78;;
15693;SDS011;7947;48.834;9.132;2023-04-06T16:21:29;7.10;;;5.05;;
15693;SDS011;7947;48.834;9.132;2023-04-06T16:24:32;8.32;;;4.72;;
15693;SDS011;7947;48.834;9.132;2023-04-06T16:27:36;8.40;;;5.30;;
15693;SDS011;7947;48.834;9.132;2023-04-06T16:30:39;8.70;;;5.15;;
15693;SDS011;7947;48.834;9.132;2023-04-06T16:33:46;5.13;;;4.15;;
15693;SDS011;7947;48.834;9.132;2023-04-06T16:36:49;7.60;;;4.55;;
15693;SDS011;7947;48.834;9.132;2023-04-06T16:39:53;7.25;;;4.32;;
15693;SDS011;7947;48.834;9.132;2023-04-06T16:42:57;8.15;;;4.90;;
15693;SDS011;7947;48.834;9.132;2023-04-06T16:45:59;4.82;;;4.03;;
15693;SDS011;7947;48.834;9.132;2023-04-06T16:49:03;7.57;;;4.60;;
15693;SDS011;7947;48.834;9.132;2023-04-06T16:52:07;6.90;;;4.65;;
15693;SDS011;7947;48.834;9.132;2023-04-06T16:55:10;7.88;;;4.47;;
15693;SDS011;7947;48.834;9.132;2023-04-06T16:58:14;7.90;;;3.72;;
15693;SDS011;7947;48.834;9.132;2023-04-06T17:01:17;6.20;;;3.55;;
15693;SDS011;7947;48.834;9.132;2023-04-06T17:04:21;5.47;;;3.42;;
15693;SDS011;7947;48.834;9.132;2023-04-06T17:07:24;5.28;;;3.25;;
15693;SDS011;7947;48.834;9.132;2023-04-06T17:10:31;6.78;;;3.58;;
15693;SDS011;7947;48.834;9.132;2023-04-06T17:13:53;4.57;;;2.50;;
15693;SDS011;7947;48.834;9.132;2023-04-06T17:16:56;5.90;;;3.45;;
15693;SDS011;7947;48.834;9.132;2023-04-06T17:19:59;5.10;;;3.00;;
15693;SDS011;7947;48.834;9.132;2023-04-06T17:23:01;6.30;;;3.05;;
15693;SDS011;7947;48.834;9.132;2023-04-06T17:26:05;4.70;;;3.17;;
15693;SDS011;7947;48.834;9.132;2023-04-06T17:29:10;4.68;;;2.88;;
15693;SDS011;7947;48.834;9.132;2023-04-06T17:32:12;5.47;;;2.92;;
15693;SDS011;7947;48.834;9.132;2023-04-06T17:35:16;4.53;;;2.60;;
15693;SDS011;7947;48.834;9.132;2023-04-06T17:38:19;5.00;;;3.55;;
15693;SDS011;7947;48.834;9.132;2023-04-06T17:41:23;6.22;;;3.00;;
15693;SDS011;7947;48.834;9.132;2023-04-06T17:44:28;4.03;;;3.03;;
15693;SDS011;7947;48.834;9.132;2023-04-06T17:47:30;4.45;;;2.83;;
15693;SDS011;7947;48.834;9.132;2023-04-06T17:50:35;6.60;;;3.78;;
15693;SDS011;7947;48.834;9.132;2023-04-06T17:53:40;5.60;;;3.50;;
15693;SDS011;7947;48.834;9.132;2023-04-06T17:56:42;6.53;;;4.22;;
15693;SDS011;7947;48.834;9.132;2023-04-06T17:59:50;4.65;;;3.03;;
15693;SDS011;7947;48.834;9.132;2023-04-06T18:02:54;5.32;;;3.10;;
15693;SDS011;7947;48.834;9.132;2023-04-06T18:06:07;6.47;;;4.00;;
15693;SDS011;7947;48.834;9.132;2023-04-06T18:09:10;7.10;;;3.92;;
15693;SDS011;7947;48.834;9.132;2023-04-06T18:12:13;6.57;;;3.63;;
15693;SDS011;7947;48.834;9.132;2023-04-06T18:15:17;5.88;;;3.17;;
15693;SDS011;7947;48.834;9.132;2023-04-06T18:18:20;6.10;;;3.28;;
15693;SDS011;7947;48.834;9.132;2023-04-06T18:21:23;4.57;;;2.92;;
15693;SDS011;7947;48.834;9.132;2023-04-06T18:24:27;4.60;;;2.92;;
15693;SDS011;7947;48.834;9.132;2023-04-06T18:27:42;3.08;;;2.28;;
15693;SDS011;7947;48.834;9.132;2023-04-06T18:30:47;6.70;;;2.22;;
15693;SDS011;7947;48.834;9.132;2023-04-06T18:33:49;4.85;;;2.70;;
15693;SDS011;7947;48.834;9.132;2023-04-06T18:36:54;3.90;;;2.25;;
15693;SDS011;7947;48.834;9.132;2023-04-06T18:39:57;3.85;;;2.65;;
15693;SDS011;7947;48.834;9.132;2023-04-06T18:43:01;3.85;;;2.65;;